Time;durP1;ratioP1;P1;durP2;ratioP2;P2;SDS_P1;SDS_P2;PMS_P1;PMS_P2;Temp;Humidity;BMP_temperature;BMP_pressure;BME280_temperature;BME280_humidity;BME280_pressure;Samples;Min_cycle;Max_cycle;Signal;HPM_P1;HPM_P2
2022/11/07 00:02:27;;;;;;;18.07;11.57;;;;;;;;;;5098654;28;20230;-65
2022/11/07 00:04:56;;;;;;;21.57;11.37;;;;;;;;;;5098998;28;20285;-65
2022/11/07 00:07:24;;;;;;;18.93;11.90;;;;;;;;;;5098586;28;20217;-66
2022/11/07 00:09:51;;;;;;;19.93;12.30;;;;;;;;;;5099484;28;20624;-66
2022/11/07 00:12:19;;;;;;;19.93;11.23;;;;;;;;;;5097694;28;20236;-65
2022/11/07 00:14:47;;;;;;;17.57;11.07;;;;;;;;;;5098547;28;20248;-65
2022/11/07 00:17:14;;;;;;;15.60;10.03;;;;;;;;;;5095477;28;20284;-66
2022/11/07 00:19:42;;;;;;;17.93;11.93;;;;;;;;;;5098906;28;20208;-65
2022/11/07 00:22:11;;;;;;;16.43;11.13;;;;;;;;;;5098437;28;20759;-65
2022/11/07 00:24:39;;;;;;;19.00;12.33;;;;;;;;;;5098555;28;20282;-66
2022/11/07 00:27:06;;;;;;;19.03;11.33;;;;;;;;;;5098423;28;20288;-65
2022/11/07 00:29:34;;;;;;;16.03;10.93;;;;;;;;;;5098352;28;20208;-65
2022/11/07 00:32:02;;;;;;;19.23;11.63;;;;;;;;;;5098770;28;20623;-66
2022/11/07 00:34:29;;;;;;;18.47;10.90;;;;;;;;;;5098226;28;20279;-65
2022/11/07 00:36:57;;;;;;;16.57;11.30;;;;;;;;;;5098374;28;20289;-65
2022/11/07 00:39:26;;;;;;;20.50;12.07;;;;;;;;;;5098331;28;20209;-65
2022/11/07 00:41:54;;;;;;;17.53;11.40;;;;;;;;;;5097352;28;20308;-65
2022/11/07 00:44:21;;;;;;;21.90;11.37;;;;;;;;;;5097609;28;20221;-66
2022/11/07 00:46:49;;;;;;;19.83;12.00;;;;;;;;;;5098144;28;20256;-65
2022/11/07 00:49:17;;;;;;;19.47;12.37;;;;;;;;;;5098081;28;20209;-65
2022/11/07 00:51:44;;;;;;;19.10;11.83;;;;;;;;;;5098399;28;20239;-65
2022/11/07 00:54:12;;;;;;;18.40;11.77;;;;;;;;;;5098091;28;20321;-66
2022/11/07 00:56:41;;;;;;;18.40;11.63;;;;;;;;;;5097952;28;20273;-66
2022/11/07 00:59:08;;;;;;;23.53;12.60;;;;;;;;;;5098199;28;20268;-65
2022/11/07 01:01:36;;;;;;;19.10;11.43;;;;;;;;;;5098093;28;20312;-66
2022/11/07 01:06:50;;;;;;;19.07;11.90;;;;;;;;;;5097881;28;20213;-65
2022/11/07 01:09:19;;;;;;;17.90;12.03;;;;;;;;;;5097976;28;20229;-65
2022/11/07 01:11:48;;;;;;;18.73;11.87;;;;;;;;;;5096877;28;20618;-65
2022/11/07 01:14:17;;;;;;;21.13;12.27;;;;;;;;;;5097838;28;20229;-65
2022/11/07 01:16:45;;;;;;;20.60;11.93;;;;;;;;;;5094311;28;20289;-65
2022/11/07 01:19:13;;;;;;;18.93;11.87;;;;;;;;;;5096672;28;20289;-65
2022/11/07 01:21:41;;;;;;;18.73;10.80;;;;;;;;;;5097799;28;20261;-65
2022/11/07 01:24:09;;;;;;;17.10;11.60;;;;;;;;;;5097435;28;20256;-65
2022/11/07 01:26:37;;;;;;;18.80;11.20;;;;;;;;;;5097560;28;20205;-65
2022/11/07 01:29:07;;;;;;;19.70;11.23;;;;;;;;;;5097920;28;20653;-65
2022/11/07 01:31:35;;;;;;;20.13;11.77;;;;;;;;;;5097701;28;20677;-65
2022/11/07 01:34:02;;;;;;;19.10;11.63;;;;;;;;;;5097254;28;20262;-66
2022/11/07 01:36:30;;;;;;;18.03;11.87;;;;;;;;;;5097505;28;20247;-65
2022/11/07 01:38:58;;;;;;;18.97;11.73;;;;;;;;;;5097696;28;20315;-65
2022/11/07 01:41:27;;;;;;;19.23;12.97;;;;;;;;;;5096904;28;20673;-65
2022/11/07 01:43:56;;;;;;;21.37;12.43;;;;;;;;;;5097423;28;20217;-65
2022/11/07 01:46:27;;;;;;;21.40;13.30;;;;;;;;;;5097348;28;20240;-66
2022/11/07 01:49:01;;;;;;;21.27;12.67;;;;;;;;;;5097169;28;20212;-64
2022/11/07 01:51:30;;;;;;;19.70;13.83;;;;;;;;;;5097531;28;20237;-64
2022/11/07 01:53:58;;;;;;;20.50;13.50;;;;;;;;;;5097136;28;20600;-65
2022/11/07 01:56:28;;;;;;;21.80;12.57;;;;;;;;;;5097439;28;20317;-66
2022/11/07 01:58:56;;;;;;;20.27;12.83;;;;;;;;;;5097433;28;20269;-64
2022/11/07 02:01:24;;;;;;;19.00;12.37;;;;;;;;;;5097625;28;20237;-65
2022/11/07 02:03:55;;;;;;;16.70;11.47;;;;;;;;;;5096806;28;20233;-66
2022/11/07 02:06:25;;;;;;;18.93;11.80;;;;;;;;;;5097349;28;20292;-66
2022/11/07 02:08:53;;;;;;;18.73;11.60;;;;;;;;;;5097039;28;20297;-65
2022/11/07 02:11:21;;;;;;;15.80;11.20;;;;;;;;;;5095707;28;20229;-66
2022/11/07 02:13:48;;;;;;;16.63;11.43;;;;;;;;;;5096791;28;20297;-65
2022/11/07 02:16:16;;;;;;;16.70;10.83;;;;;;;;;;5096106;28;20213;-66
2022/11/07 02:18:45;;;;;;;23.10;12.57;;;;;;;;;;5097134;28;20244;-66
2022/11/07 02:21:18;;;;;;;19.27;11.00;;;;;;;;;;5097060;28;20209;-66
2022/11/07 02:23:48;;;;;;;22.70;11.30;;;;;;;;;;5097166;28;20665;-66
2022/11/07 02:26:18;;;;;;;16.03;11.17;;;;;;;;;;5097370;28;20237;-66
2022/11/07 02:28:46;;;;;;;18.07;11.40;;;;;;;;;;5097306;28;20292;-66
2022/11/07 02:31:14;;;;;;;18.77;11.87;;;;;;;;;;5099765;28;20205;-66
2022/11/07 02:33:41;;;;;;;18.37;12.40;;;;;;;;;;5100595;28;20723;-66
2022/11/07 02:36:12;;;;;;;18.13;12.23;;;;;;;;;;5101001;28;20288;-65
2022/11/07 02:38:40;;;;;;;19.17;12.53;;;;;;;;;;5100776;28;20244;-66
2022/11/07 02:41:10;;;;;;;18.30;12.30;;;;;;;;;;5099824;28;20212;-66
2022/11/07 02:43:42;;;;;;;17.53;12.13;;;;;;;;;;5100282;28;20261;-66
2022/11/07 02:46:11;;;;;;;16.57;11.63;;;;;;;;;;5100614;28;20236;-66
2022/11/07 02:48:43;;;;;;;18.87;11.90;;;;;;;;;;5100345;28;20210;-66
2022/11/07 02:51:10;;;;;;;16.63;10.90;;;;;;;;;;5100281;28;20248;-66
2022/11/07 02:53:38;;;;;;;19.23;11.77;;;;;;;;;;5100505;28;20267;-66
2022/11/07 02:56:06;;;;;;;18.03;11.63;;;;;;;;;;5100308;28;20249;-66
2022/11/07 02:58:35;;;;;;;19.97;12.03;;;;;;;;;;5100419;28;20217;-66
2022/11/07 03:01:06;;;;;;;16.77;12.07;;;;;;;;;;5100247;28;20292;-66
2022/11/07 03:03:34;;;;;;;19.80;12.17;;;;;;;;;;5099969;28;20260;-65
2022/11/07 03:06:02;;;;;;;15.37;11.47;;;;;;;;;;5100353;28;20237;-64
2022/11/07 03:08:29;;;;;;;19.90;11.53;;;;;;;;;;5100109;28;20293;-66
2022/11/07 03:10:57;;;;;;;18.77;11.60;;;;;;;;;;5098700;28;20633;-66
2022/11/07 03:13:25;;;;;;;16.47;10.73;;;;;;;;;;5100274;28;20257;-66
2022/11/07 03:15:53;;;;;;;18.10;12.03;;;;;;;;;;5100117;28;20243;-66
2022/11/07 03:18:22;;;;;;;20.00;11.80;;;;;;;;;;5098266;28;20225;-66
2022/11/07 03:20:49;;;;;;;16.83;11.10;;;;;;;;;;5098710;28;20226;-66
2022/11/07 03:23:17;;;;;;;16.97;11.60;;;;;;;;;;5098442;28;20253;-66
2022/11/07 03:25:45;;;;;;;17.00;10.83;;;;;;;;;;5100042;28;20712;-66
2022/11/07 03:28:13;;;;;;;15.67;10.87;;;;;;;;;;5099575;28;20240;-66
2022/11/07 03:30:41;;;;;;;17.97;11.60;;;;;;;;;;5099910;28;20202;-66
2022/11/07 03:33:09;;;;;;;17.63;11.10;;;;;;;;;;5099203;28;20205;-66
2022/11/07 03:35:38;;;;;;;16.67;11.17;;;;;;;;;;5099854;28;20641;-66
2022/11/07 03:38:05;;;;;;;15.50;10.97;;;;;;;;;;5099561;28;20229;-66
2022/11/07 03:40:33;;;;;;;17.67;10.57;;;;;;;;;;5099678;28;20209;-66
2022/11/07 03:43:01;;;;;;;15.37;11.00;;;;;;;;;;5096915;28;20249;-66
2022/11/07 03:45:28;;;;;;;18.97;10.53;;;;;;;;;;5099222;28;20202;-64
2022/11/07 03:47:56;;;;;;;14.57;10.47;;;;;;;;;;5098853;28;20264;-65
2022/11/07 03:50:24;;;;;;;17.37;11.10;;;;;;;;;;5099586;28;20205;-65
2022/11/07 03:52:53;;;;;;;17.00;10.67;;;;;;;;;;5099364;28;20201;-65
2022/11/07 03:55:20;;;;;;;13.60;10.40;;;;;;;;;;5098989;28;20625;-64
2022/11/07 03:57:48;;;;;;;20.73;11.00;;;;;;;;;;5098904;28;20237;-65
2022/11/07 04:00:16;;;;;;;16.20;10.87;;;;;;;;;;5098120;28;20205;-65
2022/11/07 04:02:44;;;;;;;17.57;11.73;;;;;;;;;;5098158;28;20202;-65
2022/11/07 04:05:12;;;;;;;15.87;11.23;;;;;;;;;;5098896;28;20231;-65
2022/11/07 04:07:42;;;;;;;17.27;11.00;;;;;;;;;;5098911;28;20217;-65
2022/11/07 04:10:12;;;;;;;21.27;11.50;;;;;;;;;;5098694;28;20206;-65
2022/11/07 04:18:10;;;;;;;14.17;10.50;;;;;;;;;;5096234;28;20221;-65
2022/11/07 04:20:37;;;;;;;15.67;11.10;;;;;;;;;;5097449;28;20202;-65
2022/11/07 04:23:05;;;;;;;17.27;10.70;;;;;;;;;;5097927;28;20744;-63
2022/11/07 04:28:19;;;;;;;18.23;10.87;;;;;;;;;;5098818;28;20281;-65
2022/11/07 04:30:47;;;;;;;16.17;11.07;;;;;;;;;;5097554;28;20205;-65
2022/11/07 04:33:15;;;;;;;17.40;11.33;;;;;;;;;;5097047;28;20280;-65
2022/11/07 04:35:43;;;;;;;16.07;10.70;;;;;;;;;;5093439;28;20198;-65
2022/11/07 04:38:11;;;;;;;14.43;10.70;;;;;;;;;;5096881;28;20236;-65
2022/11/07 04:40:40;;;;;;;19.70;10.97;;;;;;;;;;5097361;28;20244;-65
2022/11/07 04:43:08;;;;;;;15.40;10.53;;;;;;;;;;5097373;28;20201;-65
2022/11/07 04:45:36;;;;;;;17.93;11.07;;;;;;;;;;5097703;28;20197;-65
2022/11/07 04:48:04;;;;;;;21.90;10.50;;;;;;;;;;5096694;28;20664;-65
2022/11/07 04:50:32;;;;;;;15.77;10.33;;;;;;;;;;5097664;28;20201;-65
2022/11/07 04:52:59;;;;;;;17.43;9.83;;;;;;;;;;5097609;28;20237;-64
2022/11/07 04:55:29;;;;;;;14.83;10.27;;;;;;;;;;5097629;28;20909;-65
2022/11/07 04:57:58;;;;;;;18.50;10.70;;;;;;;;;;5094916;28;20233;-65
2022/11/07 05:00:26;;;;;;;15.97;9.47;;;;;;;;;;5097587;28;20201;-64
2022/11/07 05:02:54;;;;;;;13.80;10.20;;;;;;;;;;5097361;28;20251;-65
2022/11/07 05:05:22;;;;;;;17.53;10.20;;;;;;;;;;5095934;28;20217;-65
2022/11/07 05:07:49;;;;;;;13.80;9.80;;;;;;;;;;5091376;28;20209;-65
2022/11/07 05:10:19;;;;;;;18.27;10.17;;;;;;;;;;5097889;28;20657;-64
2022/11/07 05:12:47;;;;;;;16.70;10.90;;;;;;;;;;5096151;28;20231;-65
2022/11/07 05:15:16;;;;;;;18.10;10.40;;;;;;;;;;5097264;28;20263;-64
2022/11/07 05:17:44;;;;;;;16.83;10.50;;;;;;;;;;5097753;28;20306;-64
2022/11/07 05:20:18;;;;;;;17.47;10.80;;;;;;;;;;5097773;28;20210;-64
2022/11/07 05:25:31;;;;;;;13.83;9.57;;;;;;;;;;5084300;28;20271;-65
2022/11/07 05:27:58;;;;;;;16.97;8.93;;;;;;;;;;5097693;28;20319;-65
2022/11/07 05:30:28;;;;;;;13.70;9.00;;;;;;;;;;5097634;28;20236;-65
2022/11/07 05:32:55;;;;;;;13.17;9.30;;;;;;;;;;5097195;28;20232;-65
2022/11/07 05:35:23;;;;;;;13.80;9.37;;;;;;;;;;5096839;28;20300;-65
2022/11/07 05:37:51;;;;;;;14.73;8.60;;;;;;;;;;5097475;28;20624;-65
2022/11/07 05:40:19;;;;;;;15.57;8.73;;;;;;;;;;5097607;28;20237;-65
2022/11/07 05:42:47;;;;;;;13.97;9.57;;;;;;;;;;5097501;28;20244;-65
2022/11/07 05:45:15;;;;;;;13.13;9.17;;;;;;;;;;5097460;28;20233;-65
2022/11/07 05:47:44;;;;;;;13.27;8.97;;;;;;;;;;5096993;28;20204;-65
2022/11/07 05:50:11;;;;;;;11.53;8.60;;;;;;;;;;5097326;28;20228;-65
2022/11/07 05:52:39;;;;;;;16.23;9.40;;;;;;;;;;5097353;28;20241;-65
2022/11/07 05:55:07;;;;;;;13.53;7.37;;;;;;;;;;5097390;28;20313;-65
2022/11/07 05:57:35;;;;;;;19.67;8.73;;;;;;;;;;5097162;28;20265;-65
2022/11/07 06:00:03;;;;;;;10.43;8.03;;;;;;;;;;5091640;28;20753;-65
2022/11/07 06:02:31;;;;;;;13.53;8.90;;;;;;;;;;5092725;28;20285;-66
2022/11/07 06:05:00;;;;;;;12.07;7.03;;;;;;;;;;5092641;28;20301;-65
2022/11/07 06:07:27;;;;;;;13.00;8.47;;;;;;;;;;5096029;28;20228;-65
2022/11/07 06:09:55;;;;;;;14.77;7.83;;;;;;;;;;5097646;28;20237;-65
2022/11/07 06:12:23;;;;;;;12.43;8.30;;;;;;;;;;5099949;28;20237;-65
2022/11/07 06:14:50;;;;;;;14.23;8.27;;;;;;;;;;5100728;28;20267;-65
2022/11/07 06:17:18;;;;;;;12.33;8.03;;;;;;;;;;5098278;28;20229;-65
2022/11/07 06:19:46;;;;;;;11.17;7.70;;;;;;;;;;5101118;28;20288;-65
2022/11/07 06:22:15;;;;;;;12.37;8.57;;;;;;;;;;5093674;28;20288;-64
2022/11/07 06:24:42;;;;;;;12.43;8.23;;;;;;;;;;5100608;28;20664;-64
2022/11/07 06:27:10;;;;;;;11.83;7.43;;;;;;;;;;5100890;28;20549;-64
2022/11/07 06:29:38;;;;;;;13.07;7.60;;;;;;;;;;5100978;28;20207;-64
2022/11/07 06:32:06;;;;;;;11.80;7.50;;;;;;;;;;5100416;28;20237;-65
2022/11/07 06:34:33;;;;;;;13.30;8.37;;;;;;;;;;5100302;28;20742;-65
2022/11/07 06:37:01;;;;;;;12.17;8.40;;;;;;;;;;5100727;28;20241;-66
2022/11/07 06:39:31;;;;;;;13.10;8.57;;;;;;;;;;5100568;28;20205;-65
2022/11/07 06:41:59;;;;;;;9.47;7.47;;;;;;;;;;5100506;28;20259;-66
2022/11/07 06:44:26;;;;;;;12.43;8.37;;;;;;;;;;5100609;28;20230;-65
2022/11/07 06:46:54;;;;;;;13.53;8.40;;;;;;;;;;5098529;28;20230;-65
2022/11/07 06:49:22;;;;;;;13.73;8.10;;;;;;;;;;5102088;28;20252;-67
2022/11/07 06:51:50;;;;;;;11.87;8.00;;;;;;;;;;5099142;28;20205;-65
2022/11/07 06:54:17;;;;;;;12.67;8.43;;;;;;;;;;5100013;28;20257;-65
2022/11/07 06:56:46;;;;;;;11.40;8.53;;;;;;;;;;5100193;28;20244;-65
2022/11/07 06:59:14;;;;;;;13.10;8.17;;;;;;;;;;5099988;28;20212;-65
2022/11/07 07:01:42;;;;;;;15.37;8.07;;;;;;;;;;5100455;28;20259;-69
2022/11/07 07:04:10;;;;;;;17.00;8.93;;;;;;;;;;5099723;28;20233;-67
2022/11/07 07:06:37;;;;;;;12.60;8.87;;;;;;;;;;5099528;28;20244;-67
2022/11/07 07:09:06;;;;;;;12.10;8.83;;;;;;;;;;5099816;28;20618;-67
2022/11/07 07:11:35;;;;;;;9.83;7.47;;;;;;;;;;5099854;28;20205;-68
2022/11/07 07:14:04;;;;;;;14.73;7.67;;;;;;;;;;5099056;28;20315;-66
2022/11/07 07:16:38;;;;;;;9.37;7.53;;;;;;;;;;5095194;28;20232;-67
2022/11/07 07:19:05;;;;;;;12.03;7.53;;;;;;;;;;5099481;28;20637;-65
2022/11/07 07:21:33;;;;;;;12.33;7.90;;;;;;;;;;5099539;28;20233;-65
2022/11/07 07:24:01;;;;;;;14.20;8.10;;;;;;;;;;5099436;28;20735;-65
2022/11/07 07:26:28;;;;;;;15.37;7.93;;;;;;;;;;5099120;28;20256;-65
2022/11/07 07:28:56;;;;;;;12.37;7.50;;;;;;;;;;5099720;28;20197;-65
2022/11/07 07:31:29;;;;;;;9.43;7.73;;;;;;;;;;5099259;28;20585;-65
2022/11/07 07:33:57;;;;;;;9.63;6.50;;;;;;;;;;5096816;28;20644;-66
2022/11/07 07:36:25;;;;;;;9.57;7.67;;;;;;;;;;5095861;28;20719;-65
2022/11/07 07:38:52;;;;;;;15.43;8.23;;;;;;;;;;5099425;28;20281;-65
2022/11/07 07:41:20;;;;;;;13.00;7.80;;;;;;;;;;5098749;28;20201;-65
2022/11/07 07:43:48;;;;;;;13.53;8.07;;;;;;;;;;5097766;28;20244;-65
2022/11/07 07:46:16;;;;;;;12.67;7.73;;;;;;;;;;5098884;28;21183;-65
2022/11/07 07:48:45;;;;;;;12.97;8.37;;;;;;;;;;5099119;28;20241;-65
2022/11/07 07:51:13;;;;;;;10.47;7.13;;;;;;;;;;5099338;28;20210;-65
2022/11/07 07:53:41;;;;;;;13.00;6.67;;;;;;;;;;5098883;28;20623;-65
2022/11/07 07:56:08;;;;;;;15.67;6.90;;;;;;;;;;5098948;28;20264;-65
2022/11/07 07:58:36;;;;;;;9.13;6.53;;;;;;;;;;5098709;28;20274;-65
2022/11/07 08:01:09;;;;;;;10.43;7.03;;;;;;;;;;5097971;28;20225;-65
2022/11/07 08:03:37;;;;;;;12.07;7.23;;;;;;;;;;5097673;28;20226;-65
2022/11/07 08:06:26;;;;;;;8.43;6.57;;;;;;;;;;5098723;28;20229;-65
2022/11/07 08:08:54;;;;;;;9.73;6.33;;;;;;;;;;5098761;28;20248;-65
2022/11/07 08:11:21;;;;;;;11.10;6.60;;;;;;;;;;5098677;28;20241;-65
2022/11/07 08:13:49;;;;;;;11.80;6.37;;;;;;;;;;5098847;28;20257;-65
2022/11/07 08:16:17;;;;;;;11.03;6.80;;;;;;;;;;5098545;28;20220;-65
2022/11/07 08:18:44;;;;;;;10.40;7.10;;;;;;;;;;5098472;28;20212;-65
2022/11/07 08:21:12;;;;;;;11.50;6.40;;;;;;;;;;5098589;28;20323;-65
2022/11/07 08:23:41;;;;;;;10.03;6.20;;;;;;;;;;5098400;28;20284;-65
2022/11/07 08:26:09;;;;;;;11.00;7.57;;;;;;;;;;5098633;28;20225;-65
2022/11/07 08:28:36;;;;;;;15.40;6.83;;;;;;;;;;5098061;28;20263;-65
2022/11/07 08:31:05;;;;;;;14.80;9.47;;;;;;;;;;5097854;28;20236;-65
2022/11/07 08:33:33;;;;;;;9.37;6.53;;;;;;;;;;5098140;28;20257;-65
2022/11/07 08:36:01;;;;;;;12.60;7.27;;;;;;;;;;5097343;28;20718;-65
2022/11/07 08:38:29;;;;;;;7.70;6.70;;;;;;;;;;5097934;28;20233;-65
2022/11/07 08:40:59;;;;;;;10.50;6.10;;;;;;;;;;5098364;28;20209;-65
2022/11/07 08:43:26;;;;;;;11.77;6.00;;;;;;;;;;5098270;28;20260;-65
2022/11/07 08:45:55;;;;;;;9.53;6.87;;;;;;;;;;5096236;28;20292;-65
2022/11/07 08:48:23;;;;;;;14.37;6.80;;;;;;;;;;5097808;28;20262;-65
2022/11/07 08:50:54;;;;;;;12.60;7.47;;;;;;;;;;5098176;28;20208;-65
2022/11/07 08:53:23;;;;;;;12.27;7.57;;;;;;;;;;5098114;28;20225;-65
2022/11/07 08:55:50;;;;;;;11.00;7.50;;;;;;;;;;5097669;28;20609;-65
2022/11/07 08:58:19;;;;;;;11.60;8.20;;;;;;;;;;5098024;28;20232;-66
2022/11/07 09:00:53;;;;;;;11.07;7.43;;;;;;;;;;5097981;28;20561;-65
2022/11/07 09:03:21;;;;;;;7.87;6.20;;;;;;;;;;5097622;28;20307;-66
2022/11/07 09:06:09;;;;;;;10.07;6.50;;;;;;;;;;5097981;28;20221;-65
2022/11/07 09:08:36;;;;;;;7.60;5.67;;;;;;;;;;5097997;28;20233;-66
2022/11/07 09:11:04;;;;;;;11.23;6.30;;;;;;;;;;5098128;28;20205;-66
2022/11/07 09:13:34;;;;;;;12.17;6.17;;;;;;;;;;5096943;28;20213;-65
2022/11/07 09:16:02;;;;;;;8.07;6.13;;;;;;;;;;5087083;28;20202;-66
2022/11/07 09:18:31;;;;;;;9.47;6.47;;;;;;;;;;5097427;28;20231;-66
2022/11/07 09:20:59;;;;;;;9.73;6.77;;;;;;;;;;5097892;28;20216;-65
2022/11/07 09:23:26;;;;;;;10.20;6.90;;;;;;;;;;5097279;28;20633;-65
2022/11/07 09:25:54;;;;;;;11.97;6.00;;;;;;;;;;5097729;28;20225;-65
2022/11/07 09:28:22;;;;;;;11.97;6.47;;;;;;;;;;5097368;28;20209;-65
2022/11/07 09:30:54;;;;;;;8.27;5.77;;;;;;;;;;5097703;28;20632;-65
2022/11/07 09:33:22;;;;;;;11.40;5.80;;;;;;;;;;5097320;28;20257;-65
2022/11/07 09:35:50;;;;;;;12.43;6.17;;;;;;;;;;5097784;28;20201;-65
2022/11/07 09:38:17;;;;;;;10.73;5.00;;;;;;;;;;5097464;28;20209;-65
2022/11/07 09:40:48;;;;;;;7.33;5.40;;;;;;;;;;5099483;28;20288;-64
2022/11/07 09:43:38;;;;;;;8.07;6.00;;;;;;;;;;5100332;28;20231;-64
2022/11/07 09:46:14;;;;;;;10.53;6.20;;;;;;;;;;5075891;28;20632;-65
2022/11/07 09:48:44;;;;;;;13.73;6.40;;;;;;;;;;5101448;28;20243;-64
2022/11/07 09:51:14;;;;;;;8.47;6.40;;;;;;;;;;5101565;28;20212;-65
2022/11/07 09:53:42;;;;;;;11.77;6.17;;;;;;;;;;5101124;28;20244;-64
2022/11/07 09:56:12;;;;;;;10.03;5.57;;;;;;;;;;5100467;28;20270;-64
2022/11/07 09:58:41;;;;;;;8.80;5.73;;;;;;;;;;5101381;28;20244;-65
2022/11/07 10:01:13;;;;;;;13.03;6.20;;;;;;;;;;5101523;28;20209;-65
2022/11/07 10:03:41;;;;;;;8.50;5.30;;;;;;;;;;5100842;28;20236;-65
2022/11/07 10:06:30;;;;;;;5.93;4.90;;;;;;;;;;5101198;28;20233;-64
2022/11/07 10:09:01;;;;;;;7.87;5.13;;;;;;;;;;5101096;28;20251;-64
2022/11/07 10:11:33;;;;;;;12.97;5.90;;;;;;;;;;5101420;28;20288;-66
2022/11/07 10:14:08;;;;;;;9.43;5.33;;;;;;;;;;5101190;28;20229;-64
2022/11/07 10:16:47;;;;;;;6.00;4.33;;;;;;;;;;5101105;28;20777;-64
2022/11/07 10:19:22;;;;;;;30.40;9.77;;;;;;;;;;5089472;28;20204;-65
2022/11/07 10:21:53;;;;;;;28.60;7.77;;;;;;;;;;5100995;28;20233;-64
2022/11/07 10:24:36;;;;;;;10.80;5.40;;;;;;;;;;5100886;28;20308;-64
2022/11/07 10:27:07;;;;;;;5.87;4.80;;;;;;;;;;5099750;28;20225;-64
2022/11/07 10:29:39;;;;;;;8.37;4.60;;;;;;;;;;5100566;28;20244;-66
2022/11/07 10:32:18;;;;;;;4.93;3.80;;;;;;;;;;5100661;28;20201;-65
2022/11/07 10:34:47;;;;;;;6.10;4.80;;;;;;;;;;5099557;28;20250;-64
2022/11/07 10:37:21;;;;;;;6.40;4.17;;;;;;;;;;5097307;28;20200;-64
2022/11/07 10:39:48;;;;;;;9.47;4.03;;;;;;;;;;5100680;28;20258;-64
2022/11/07 10:42:18;;;;;;;6.83;4.07;;;;;;;;;;5100901;28;20233;-64
2022/11/07 10:44:46;;;;;;;5.57;3.67;;;;;;;;;;5100334;28;20309;-65
2022/11/07 10:47:18;;;;;;;6.97;3.77;;;;;;;;;;5100065;28;20257;-65
2022/11/07 10:49:56;;;;;;;6.47;3.80;;;;;;;;;;5100312;28;20622;-64
2022/11/07 10:52:24;;;;;;;7.70;3.90;;;;;;;;;;5100274;28;20244;-64
2022/11/07 10:54:52;;;;;;;7.60;3.73;;;;;;;;;;5100370;28;20257;-64
2022/11/07 10:57:20;;;;;;;5.07;3.53;;;;;;;;;;5100171;28;20265;-66
2022/11/07 10:59:55;;;;;;;4.80;3.50;;;;;;;;;;5100312;28;20221;-64
2022/11/07 11:02:27;;;;;;;5.13;2.97;;;;;;;;;;5099673;28;20208;-65
2022/11/07 11:04:56;;;;;;;5.60;2.17;;;;;;;;;;5099291;28;20249;-65
2022/11/07 11:07:26;;;;;;;5.40;2.50;;;;;;;;;;5098717;28;20228;-65
2022/11/07 11:09:56;;;;;;;3.00;2.63;;;;;;;;;;5100085;28;20205;-64
2022/11/07 11:12:25;;;;;;;4.70;2.27;;;;;;;;;;5100008;28;20669;-65
2022/11/07 11:15:02;;;;;;;3.63;2.57;;;;;;;;;;5100024;28;20263;-65
2022/11/07 11:17:32;;;;;;;4.07;2.30;;;;;;;;;;5098537;28;20238;-65
2022/11/07 11:20:00;;;;;;;5.93;2.43;;;;;;;;;;5099904;28;20205;-65
2022/11/07 11:22:28;;;;;;;5.47;3.00;;;;;;;;;;5099639;28;20240;-65
2022/11/07 11:25:02;;;;;;;6.40;2.83;;;;;;;;;;5099589;28;20217;-65
2022/11/07 11:27:31;;;;;;;4.20;2.43;;;;;;;;;;5099816;28;20317;-65
2022/11/07 11:30:04;;;;;;;4.80;2.40;;;;;;;;;;5099610;28;20240;-64
2022/11/07 11:32:35;;;;;;;2.60;2.00;;;;;;;;;;5099132;28;20209;-66
2022/11/07 11:35:07;;;;;;;3.93;1.93;;;;;;;;;;5099768;28;20263;-66
2022/11/07 11:37:38;;;;;;;4.93;2.47;;;;;;;;;;5099560;28;20233;-66
2022/11/07 11:40:08;;;;;;;5.03;2.07;;;;;;;;;;5099554;28;20711;-67
2022/11/07 11:42:39;;;;;;;3.20;2.17;;;;;;;;;;5099577;28;20280;-64
2022/11/07 11:45:14;;;;;;;4.00;2.10;;;;;;;;;;5099452;28;20229;-65
2022/11/07 11:47:47;;;;;;;2.83;2.27;;;;;;;;;;5098271;28;20216;-66
2022/11/07 11:50:17;;;;;;;2.10;1.60;;;;;;;;;;5099481;28;20248;-66
2022/11/07 11:52:45;;;;;;;3.87;1.73;;;;;;;;;;5099442;28;20649;-66
2022/11/07 11:55:14;;;;;;;4.17;1.60;;;;;;;;;;5099099;28;20225;-64
2022/11/07 11:57:46;;;;;;;3.60;1.60;;;;;;;;;;5098425;28;20259;-65
2022/11/07 12:00:16;;;;;;;3.67;1.63;;;;;;;;;;5091398;28;20243;-66
2022/11/07 12:03:06;;;;;;;4.93;1.57;;;;;;;;;;5097706;28;20226;-65
2022/11/07 12:05:53;;;;;;;4.43;1.20;;;;;;;;;;5094335;28;20631;-65
2022/11/07 12:08:25;;;;;;;2.60;1.40;;;;;;;;;;5097051;28;20217;-65
2022/11/07 12:10:56;;;;;;;1.67;0.80;;;;;;;;;;5095440;28;20197;-67
2022/11/07 12:13:28;;;;;;;1.23;1.10;;;;;;;;;;5097596;28;20213;-67
2022/11/07 12:16:06;;;;;;;2.30;1.50;;;;;;;;;;5095724;28;20292;-64
2022/11/07 12:18:39;;;;;;;3.63;1.30;;;;;;;;;;5097403;28;20280;-65
2022/11/07 12:21:15;;;;;;;1.50;1.07;;;;;;;;;;5097792;28;20258;-64
2022/11/07 12:23:50;;;;;;;3.13;1.30;;;;;;;;;;5098091;28;20214;-63
2022/11/07 12:26:22;;;;;;;1.37;1.27;;;;;;;;;;5095935;28;20227;-65
2022/11/07 12:28:53;;;;;;;3.30;1.30;;;;;;;;;;5097059;28;20221;-66
2022/11/07 12:31:29;;;;;;;1.30;1.20;;;;;;;;;;5097230;28;20259;-65
2022/11/07 12:34:03;;;;;;;1.67;1.37;;;;;;;;;;5097231;28;20692;-66
2022/11/07 12:36:38;;;;;;;3.67;1.33;;;;;;;;;;5096071;28;20240;-66
2022/11/07 12:39:12;;;;;;;2.07;1.20;;;;;;;;;;5095693;28;20223;-66
2022/11/07 12:41:44;;;;;;;2.07;1.00;;;;;;;;;;5097385;28;20229;-65
2022/11/07 12:44:20;;;;;;;1.60;1.10;;;;;;;;;;5096927;28;20618;-66
2022/11/07 12:46:53;;;;;;;3.47;1.80;;;;;;;;;;5095439;28;20221;-66
2022/11/07 12:49:36;;;;;;;0.90;0.90;;;;;;;;;;5094755;28;20221;-67
2022/11/07 12:52:11;;;;;;;1.30;1.20;;;;;;;;;;5095719;28;20202;-66
2022/11/07 12:54:47;;;;;;;3.00;1.03;;;;;;;;;;5096386;28;20307;-67
2022/11/07 12:57:18;;;;;;;4.07;1.07;;;;;;;;;;5096713;28;20232;-67
2022/11/07 12:59:49;;;;;;;2.30;1.10;;;;;;;;;;5096971;28;20204;-67
2022/11/07 13:02:24;;;;;;;2.20;1.30;;;;;;;;;;5096584;28;20232;-67
2022/11/07 13:04:55;;;;;;;2.97;1.97;;;;;;;;;;5095657;28;20217;-65
2022/11/07 13:07:25;;;;;;;2.27;1.10;;;;;;;;;;5091292;28;20544;-67
2022/11/07 13:09:56;;;;;;;1.93;1.20;;;;;;;;;;5096747;28;20278;-65
2022/11/07 13:12:28;;;;;;;3.47;1.97;;;;;;;;;;5096191;28;20613;-66
2022/11/07 13:14:57;;;;;;;4.53;1.60;;;;;;;;;;5095492;28;20260;-65
2022/11/07 13:17:26;;;;;;;3.67;1.90;;;;;;;;;;5094496;28;20229;-65
2022/11/07 13:20:04;;;;;;;3.13;1.83;;;;;;;;;;5096073;28;20205;-67
2022/11/07 13:22:33;;;;;;;1.70;1.20;;;;;;;;;;5097715;28;20205;-65
2022/11/07 13:25:08;;;;;;;5.00;1.83;;;;;;;;;;5094384;28;20257;-66
2022/11/07 13:27:44;;;;;;;4.43;1.80;;;;;;;;;;5096377;28;20534;-65
2022/11/07 13:30:18;;;;;;;3.27;1.50;;;;;;;;;;5097384;28;20227;-67
2022/11/07 13:32:48;;;;;;;3.87;1.90;;;;;;;;;;5097490;28;20236;-65
2022/11/07 13:35:26;;;;;;;3.47;1.83;;;;;;;;;;5097678;28;20285;-65
2022/11/07 13:37:57;;;;;;;2.23;1.20;;;;;;;;;;5097541;28;20244;-67
2022/11/07 13:40:26;;;;;;;2.80;1.77;;;;;;;;;;5097748;28;20248;-67
2022/11/07 13:42:55;;;;;;;3.77;1.70;;;;;;;;;;5097442;28;20241;-67
2022/11/07 13:45:26;;;;;;;4.63;1.40;;;;;;;;;;5097272;28;20328;-67
2022/11/07 13:47:55;;;;;;;7.63;1.60;;;;;;;;;;5097075;28;20260;-66
2022/11/07 13:50:31;;;;;;;3.57;1.63;;;;;;;;;;5097596;28;20244;-67
2022/11/07 13:53:01;;;;;;;1.73;1.60;;;;;;;;;;5097411;28;20652;-67
2022/11/07 13:55:30;;;;;;;2.07;1.47;;;;;;;;;;5097503;28;20213;-67
2022/11/07 13:58:01;;;;;;;2.67;1.53;;;;;;;;;;5095572;28;20221;-67
2022/11/07 14:00:30;;;;;;;3.50;1.70;;;;;;;;;;5095475;28;20639;-67
2022/11/07 14:02:58;;;;;;;3.40;1.40;;;;;;;;;;5096830;28;20209;-67
2022/11/07 14:05:28;;;;;;;2.13;1.50;;;;;;;;;;5097323;28;20266;-67
2022/11/07 14:08:00;;;;;;;2.83;1.10;;;;;;;;;;5097311;28;20230;-67
2022/11/07 14:10:29;;;;;;;1.90;1.17;;;;;;;;;;5097287;28;20228;-67
2022/11/07 14:13:00;;;;;;;5.43;1.80;;;;;;;;;;5097145;28;20371;-67
2022/11/07 14:15:27;;;;;;;1.80;1.30;;;;;;;;;;5097380;28;20213;-67
2022/11/07 14:17:55;;;;;;;2.53;1.10;;;;;;;;;;5093771;28;20715;-67
2022/11/07 14:20:23;;;;;;;1.43;1.10;;;;;;;;;;5096137;28;20564;-67
2022/11/07 14:22:53;;;;;;;4.70;1.33;;;;;;;;;;5097678;28;20197;-66
2022/11/07 14:25:26;;;;;;;3.87;1.30;;;;;;;;;;5104686;28;20249;-67
2022/11/07 14:27:53;;;;;;;2.03;1.40;;;;;;;;;;5109448;28;20725;-67
2022/11/07 14:30:22;;;;;;;2.90;1.30;;;;;;;;;;5111158;28;20305;-67
2022/11/07 14:32:51;;;;;;;1.30;1.20;;;;;;;;;;5110482;28;20206;-67
2022/11/07 14:35:21;;;;;;;3.77;1.43;;;;;;;;;;5109558;28;20229;-67
2022/11/07 14:37:49;;;;;;;9.63;1.23;;;;;;;;;;5108071;28;20198;-67
2022/11/07 14:40:20;;;;;;;3.53;1.13;;;;;;;;;;5110079;28;20229;-67
2022/11/07 14:42:51;;;;;;;1.53;1.07;;;;;;;;;;5100091;28;20209;-67
2022/11/07 14:45:19;;;;;;;1.53;1.00;;;;;;;;;;5100250;28;20281;-67
2022/11/07 14:48:09;;;;;;;1.77;1.10;;;;;;;;;;5099222;28;20204;-67
2022/11/07 14:50:38;;;;;;;2.33;1.20;;;;;;;;;;5100464;28;20204;-67
2022/11/07 14:53:07;;;;;;;1.00;1.00;;;;;;;;;;5097264;28;20197;-67
2022/11/07 14:55:38;;;;;;;1.60;1.17;;;;;;;;;;5098520;28;20304;-66
2022/11/07 14:58:06;;;;;;;4.47;1.30;;;;;;;;;;5100752;28;20241;-66
2022/11/07 15:00:34;;;;;;;1.93;1.47;;;;;;;;;;5100518;28;20673;-67